CroatiaFixed distance
Dalmacija Ultratrail - Mountain DUT 102km
19–21 Oct2018
Distance
102.1km
Finishers
10582 men23 women
Winning time
11:57:32h
Median pace
5.15km/h
Pace distribution
105 finishers · 3.62–8.54 km/h · mean 5.25
Every finisher ran the same 102.1 km course, so these paces are directly comparable.
Histogram of finisher pace. 105 finishers ranged from 3.62 to 8.54 kilometres per hour, with a mean of 5.25 and a median of 5.15. The busiest band is 5.0 to 5.5 kilometres per hour, with 26 finishers.
Results
Ranks 51–100 of 105
| Rank | Runner | Time | Pace | Cat. | Placing |
|---|---|---|---|---|---|
| 51 | Fiziomed | 19:49:07h | 5.15 | M40 | 42nd M · 10th M40 |
| 52 | Drejka Team | 19:49:17h | 5.15 | W45 | 10th F · 5th W45 |
| 53 | Mountain Horizons | 19:50:11h | 5.15 | W45 | 11th F · 6th W45 |
| 54 | Mountain Horizons | 19:50:11h | 5.15 | M23 | 43rd M · 13th M23 |
| 55 | TLP | 19:50:39h | 5.14 | M23 | 44th M · 14th M23 |
| 56 | Cetina Adventure | 20:02:14h | 5.10 | M40 | 45th M · 11th M40 |
| 57 | 20:08:02h | 5.07 | M35 | 46th M · 8th M35 | |
| 58 | 20:09:04h | 5.07 | M35 | 47th M · 9th M35 | |
| 59 | 20:16:56h | 5.03 | M45 | 48th M · 8th M45 | |
| 60 | Zagrebačka Treking ŠKo... | 20:21:54h | 5.01 | M35 | 49th M · 10th M35 |
| 61 | 20:24:07h | 5.00 | M60 | 50th M · 2nd M60 | |
| 62 | SRK ŽUti ŠEšir | 20:32:43h | 4.97 | M40 | 51st M · 12th M40 |
| 63 | Jjfit | 20:37:19h | 4.95 | W23 | 12th F · 5th W23 |
| 64 | Jjfit | 20:37:19h | 4.95 | M23 | 52nd M · 15th M23 |
| 65 | Team Federschwanz-Spit... | 20:40:49h | 4.94 | M23 | 53rd M · 16th M23 |
| 66 | KT | 20:47:18h | 4.91 | M40 | 54th M · 13th M40 |
| 67 | Lauffreunde Nüne | 20:53:08h | 4.89 | M45 | 55th M · 9th M45 |
| 68 | Lauffreunde Nüne | 20:53:09h | 4.89 | W40 | 13th F · 1st W40 |
| 69 | 20:53:10h | 4.89 | W40 | 14th F · 2nd W40 | |
| 70 | Rgig | 20:53:16h | 4.89 | M45 | 56th M · 10th M45 |
| 71 | Norafsport Running Team | 20:58:07h | 4.87 | M40 | 57th M · 14th M40 |
| 72 | Geca | 21:15:51h | 4.80 | W50 | 15th F · 1st W50 |
| 73 | Geca | 21:15:51h | 4.80 | M55 | 58th M · 2nd M55 |
| 74 | AK Sljeme | 21:32:38h | 4.74 | W40 | 16th F · 3rd W40 |
| 75 | 21:34:04h | 4.73 | M50 | 59th M · 4th M50 | |
| 76 | Courir A Kervignac | 21:39:33h | 4.71 | M40 | 60th M · 15th M40 |
| 77 | Fagernes Cykkelklubben | 22:01:17h | 4.64 | M50 | 61st M · 5th M50 |
| 78 | Skagerrak Sportsklubb | 22:05:41h | 4.62 | W45 | 17th F · 7th W45 |
| 79 | Klyve IL | 22:05:41h | 4.62 | M45 | 62nd M · 11th M45 |
| 80 | CAP Bollene | 22:07:50h | 4.61 | W55 | 18th F · 1st W55 |
| 81 | CAP Bollene | 22:07:51h | 4.61 | M55 | 63rd M · 3rd M55 |
| 82 | Skipark Wysowa | 22:22:34h | 4.56 | M55 | 64th M · 4th M55 |
| 83 | Run.HR | 22:22:34h | 4.56 | M55 | 64th M · 4th M55 |
| 84 | 22:41:35h | 4.50 | M40 | 66th M · 16th M40 | |
| 85 | Orange Polska | 22:47:19h | 4.48 | M40 | 67th M · 17th M40 |
| 86 | Kingrunner | 22:47:19h | 4.48 | — | 67th M |
| 87 | Rzeszowskie Gazele I G... | 22:52:29h | 4.46 | M55 | 69th M · 6th M55 |
| 88 | FK Saša Jungić | 23:27:38h | 4.35 | M23 | 70th M · 17th M23 |
| 89 | Nipri | 23:27:38h | 4.35 | M23 | 70th M · 17th M23 |
| 90 | STS Lund | 23:56:23h | 4.26 | W35 | 19th F · 2nd W35 |
| 91 | Lucy | 24:09:02h | 4.23 | M23 | 72nd M · 19th M23 |
| 92 | 24:16:41h | 4.21 | M23 | 73rd M · 20th M23 | |
| 93 | 24:16:41h | 4.21 | M45 | 73rd M · 12th M45 | |
| 94 | 24:16:41h | 4.21 | M23 | 73rd M · 20th M23 | |
| 95 | Igosport | 24:55:53h | 4.09 | M40 | 76th M · 18th M40 |
| 96 | 24:55:55h | 4.09 | M55 | 77th M · 7th M55 | |
| 97 | AO Domžale | 24:56:54h | 4.09 | WU23 | 20th F · 1st WU23 |
| 98 | Crossfit Zadar | 25:08:47h | 4.06 | M23 | 78th M · 22nd M23 |
| 99 | 25:08:48h | 4.06 | M23 | 79th M · 23rd M23 | |
| 100 | 25:08:48h | 4.06 | M23 | 79th M · 23rd M23 |
- 51Fiziomed42nd M · 10th M40Time19:49:07hPace5.15Cat.M40
- 52Drejka Team10th F · 5th W45Time19:49:17hPace5.15Cat.W45
- 53Mountain Horizons11th F · 6th W45Time19:50:11hPace5.15Cat.W45
- 54Mountain Horizons43rd M · 13th M23Time19:50:11hPace5.15Cat.M23
- 55TLP44th M · 14th M23Time19:50:39hPace5.14Cat.M23
- 56Cetina Adventure45th M · 11th M40Time20:02:14hPace5.10Cat.M40
- 5746th M · 8th M35Time20:08:02hPace5.07Cat.M35
- 5847th M · 9th M35Time20:09:04hPace5.07Cat.M35
- 5948th M · 8th M45Time20:16:56hPace5.03Cat.M45
- 60Zagrebačka Treking ŠKo...49th M · 10th M35Time20:21:54hPace5.01Cat.M35
- 6150th M · 2nd M60Time20:24:07hPace5.00Cat.M60
- 62SRK ŽUti ŠEšir51st M · 12th M40Time20:32:43hPace4.97Cat.M40
- 63Jjfit12th F · 5th W23Time20:37:19hPace4.95Cat.W23
- 64Jjfit52nd M · 15th M23Time20:37:19hPace4.95Cat.M23
- 65Team Federschwanz-Spit...53rd M · 16th M23Time20:40:49hPace4.94Cat.M23
- 66KT54th M · 13th M40Time20:47:18hPace4.91Cat.M40
- 67Lauffreunde Nüne55th M · 9th M45Time20:53:08hPace4.89Cat.M45
- 68Lauffreunde Nüne13th F · 1st W40Time20:53:09hPace4.89Cat.W40
- 6914th F · 2nd W40Time20:53:10hPace4.89Cat.W40
- 70Rgig56th M · 10th M45Time20:53:16hPace4.89Cat.M45
- 71Norafsport Running Team57th M · 14th M40Time20:58:07hPace4.87Cat.M40
- 72Geca15th F · 1st W50Time21:15:51hPace4.80Cat.W50
- 73Geca58th M · 2nd M55Time21:15:51hPace4.80Cat.M55
- 74AK Sljeme16th F · 3rd W40Time21:32:38hPace4.74Cat.W40
- 7559th M · 4th M50Time21:34:04hPace4.73Cat.M50
- 76Courir A Kervignac60th M · 15th M40Time21:39:33hPace4.71Cat.M40
- 77Fagernes Cykkelklubben61st M · 5th M50Time22:01:17hPace4.64Cat.M50
- 78Skagerrak Sportsklubb17th F · 7th W45Time22:05:41hPace4.62Cat.W45
- 79Klyve IL62nd M · 11th M45Time22:05:41hPace4.62Cat.M45
- 80CAP Bollene18th F · 1st W55Time22:07:50hPace4.61Cat.W55
- 81CAP Bollene63rd M · 3rd M55Time22:07:51hPace4.61Cat.M55
- 82Skipark Wysowa64th M · 4th M55Time22:22:34hPace4.56Cat.M55
- 83Run.HR64th M · 4th M55Time22:22:34hPace4.56Cat.M55
- 8466th M · 16th M40Time22:41:35hPace4.50Cat.M40
- 85Orange Polska67th M · 17th M40Time22:47:19hPace4.48Cat.M40
- 86Kingrunner67th MTime22:47:19hPace4.48
- 87Rzeszowskie Gazele I G...69th M · 6th M55Time22:52:29hPace4.46Cat.M55
- 88FK Saša Jungić70th M · 17th M23Time23:27:38hPace4.35Cat.M23
- 89Nipri70th M · 17th M23Time23:27:38hPace4.35Cat.M23
- 90STS Lund19th F · 2nd W35Time23:56:23hPace4.26Cat.W35
- 91Lucy72nd M · 19th M23Time24:09:02hPace4.23Cat.M23
- 9273rd M · 20th M23Time24:16:41hPace4.21Cat.M23
- 9373rd M · 12th M45Time24:16:41hPace4.21Cat.M45
- 9473rd M · 20th M23Time24:16:41hPace4.21Cat.M23
- 95Igosport76th M · 18th M40Time24:55:53hPace4.09Cat.M40
- 9677th M · 7th M55Time24:55:55hPace4.09Cat.M55
- 97AO Domžale20th F · 1st WU23Time24:56:54hPace4.09Cat.WU23
- 98Crossfit Zadar78th M · 22nd M23Time25:08:47hPace4.06Cat.M23
- 9979th M · 23rd M23Time25:08:48hPace4.06Cat.M23
- 10079th M · 23rd M23Time25:08:48hPace4.06Cat.M23
Showing ranks 51–100 of 105